Time;durP1;ratioP1;P1;durP2;ratioP2;P2;SDS_P1;SDS_P2;PMS_P1;PMS_P2;Temp;Humidity;BMP_temperature;BMP_pressure;BME280_temperature;BME280_humidity;BME280_pressure;Samples;Min_cycle;Max_cycle;Signal;HPM_P1;HPM_P2
2023/07/28 00:02:05;;;;;;;2.60;2.40;;;;;;;16.31;66.90;64679.63;5049877;28;20777;-50
2023/07/28 00:04:30;;;;;;;2.35;2.08;;;;;;;16.23;66.75;64670.81;5050735;28;20692;-52
2023/07/28 00:06:56;;;;;;;2.33;2.13;;;;;;;16.22;66.48;64669.19;5051183;28;20660;-51
2023/07/28 00:09:23;;;;;;;2.40;2.30;;;;;;;16.12;66.62;64658.16;5049621;28;20323;-52
2023/07/28 00:11:48;;;;;;;2.33;2.13;;;;;;;16.09;66.58;64654.84;5050537;28;20220;-51
2023/07/28 00:14:14;;;;;;;1.90;1.80;;;;;;;15.98;66.01;64645.31;5050885;28;20209;-51
2023/07/28 00:16:39;;;;;;;3.10;1.98;;;;;;;15.88;66.16;64632.84;5050769;28;20216;-52
2023/07/28 00:19:05;;;;;;;2.33;2.13;;;;;;;15.98;66.86;64643.28;5050444;28;20296;-52
2023/07/28 00:21:30;;;;;;;2.72;1.90;;;;;;;16.04;65.71;64649.38;5050683;28;20594;-57
2023/07/28 00:23:56;;;;;;;2.47;1.80;;;;;;;16.06;67.32;64654.63;5050617;28;20599;-51
2023/07/28 00:26:22;;;;;;;4.00;2.30;;;;;;;16.07;67.23;64655.75;5050350;28;20209;-51
2023/07/28 00:28:47;;;;;;;2.78;2.33;;;;;;;15.78;67.78;64621.28;5050459;28;20584;-52
2023/07/28 00:31:13;;;;;;;2.40;2.25;;;;;;;15.65;68.61;64609.53;5050473;28;20710;-52
2023/07/28 00:33:39;;;;;;;2.25;2.05;;;;;;;15.58;69.32;64602.38;5050248;28;20264;-51
2023/07/28 00:36:04;;;;;;;2.50;2.30;;;;;;;15.96;68.00;64641.09;5050449;28;20210;-54
2023/07/28 00:38:30;;;;;;;2.63;2.42;;;;;;;15.89;67.31;64633.41;5050352;28;20225;-52
2023/07/28 00:40:56;;;;;;;2.55;2.35;;;;;;;15.68;67.71;64612.81;5049131;28;20296;-51
2023/07/28 00:43:21;;;;;;;3.15;1.80;;;;;;;15.53;67.53;64596.34;5049059;28;20394;-52
2023/07/28 00:45:48;;;;;;;2.40;2.20;;;;;;;15.58;68.63;64599.28;5032354;28;20193;-52
2023/07/28 00:48:15;;;;;;;2.28;1.73;;;;;;;15.54;69.77;64597.44;5050337;28;20196;-51
2023/07/28 00:50:48;;;;;;;2.67;1.83;;;;;;;15.79;68.12;64622.41;5050189;28;20734;-51
2023/07/28 00:53:14;;;;;;;3.92;2.47;;;;;;;15.73;67.81;64618.34;5049132;28;20233;-51
2023/07/28 00:55:41;;;;;;;4.45;2.42;;;;;;;15.61;68.96;64605.69;5050189;28;20197;-52
2023/07/28 00:58:08;;;;;;;5.70;2.65;;;;;;;15.47;68.59;64592.28;5050127;28;20221;-50
2023/07/28 01:00:34;;;;;;;2.42;2.22;;;;;;;15.26;71.13;64566.63;5050637;28;20224;-51
2023/07/28 01:02:59;;;;;;;2.30;2.10;;;;;;;15.56;70.76;64599.63;5050060;28;20707;-51
2023/07/28 01:05:52;;;;;;;3.58;2.20;;;;;;;15.42;70.92;64584.22;5050121;28;20288;-52
2023/07/28 01:08:28;;;;;;;4.82;2.28;;;;;;;15.39;70.31;64580.91;5050189;28;20245;-51
2023/07/28 01:10:53;;;;;;;2.28;2.10;;;;;;;15.19;70.32;64559.47;5050129;28;20284;-51
2023/07/28 01:13:19;;;;;;;2.05;1.95;;;;;;;15.02;68.25;64541.34;5050224;28;20367;-51
2023/07/28 01:15:44;;;;;;;2.05;1.95;;;;;;;14.74;68.96;64507.47;5053910;28;20231;-52
2023/07/28 01:18:10;;;;;;;3.55;2.00;;;;;;;14.59;69.84;64491.53;5053615;28;20251;-51
2023/07/28 01:20:38;;;;;;;2.50;2.30;;;;;;;14.48;70.87;64481.44;5035569;28;20232;-52
2023/07/28 01:23:20;;;;;;;2.60;2.40;;;;;;;14.48;72.39;64481.44;5052128;28;20692;-54
2023/07/28 01:26:11;;;;;;;2.33;2.13;;;;;;;14.58;72.13;64490.44;5053612;28;20189;-51
2023/07/28 01:28:39;;;;;;;2.50;2.30;;;;;;;14.54;72.08;64488.56;5053556;28;20213;-56
2023/07/28 01:31:06;;;;;;;2.35;2.13;;;;;;;14.52;73.24;64483.84;5053462;28;20206;-51
2023/07/28 01:33:32;;;;;;;5.50;3.10;;;;;;;14.46;73.00;64476.69;5053240;28;20217;-51
2023/07/28 01:35:59;;;;;;;3.88;2.22;;;;;;;14.42;73.56;64475.38;5053255;28;20258;-50
2023/07/28 01:38:25;;;;;;;3.67;2.55;;;;;;;14.59;72.93;64494.06;5053606;28;20208;-51
2023/07/28 01:40:51;;;;;;;3.30;2.45;;;;;;;14.44;73.03;64471.97;5053180;28;20201;-51
2023/07/28 01:43:17;;;;;;;3.15;2.30;;;;;;;14.35;73.58;64465.16;5053321;28;20198;-50
2023/07/28 01:45:42;;;;;;;2.85;2.20;;;;;;;14.14;75.12;64442.59;5053345;28;20351;-55
2023/07/28 01:48:09;;;;;;;2.50;2.30;;;;;;;13.95;76.44;64424.28;5053255;28;20198;-50
2023/07/28 01:50:39;;;;;;;3.53;2.45;;;;;;;13.87;77.24;64415.50;5053264;28;20677;-53
2023/07/28 01:53:07;;;;;;;2.55;2.35;;;;;;;13.96;78.27;64424.81;5035076;28;20262;-53
2023/07/28 01:55:32;;;;;;;1.92;1.83;;;;;;;13.93;78.25;64424.63;5053007;28;20197;-51
2023/07/28 01:58:02;;;;;;;3.37;2.20;;;;;;;13.96;78.22;64424.81;5053308;28;20210;-52
2023/07/28 02:00:27;;;;;;;3.22;2.40;;;;;;;13.98;78.13;64427.56;5052832;28;20215;-51
2023/07/28 02:02:54;;;;;;;2.60;2.40;;;;;;;14.10;78.13;64438.22;5052774;28;20205;-50
2023/07/28 02:05:19;;;;;;;2.20;2.10;;;;;;;14.22;77.33;64453.41;5052980;28;20578;-56
2023/07/28 02:07:45;;;;;;;2.67;2.30;;;;;;;13.97;77.83;64425.94;5053143;28;20218;-51
2023/07/28 02:10:11;;;;;;;2.40;2.20;;;;;;;14.06;76.73;64435.78;5052811;28;20279;-51
2023/07/28 02:12:37;;;;;;;2.40;2.20;;;;;;;13.94;77.12;64422.63;5051230;28;20712;-50
2023/07/28 02:15:06;;;;;;;2.58;2.38;;;;;;;13.93;76.97;64421.53;5034751;28;20710;-51
2023/07/28 02:17:32;;;;;;;2.73;2.53;;;;;;;13.90;75.75;64418.78;5053287;28;20239;-51
2023/07/28 02:19:58;;;;;;;3.30;2.40;;;;;;;13.95;75.91;64424.28;5053228;28;20209;-51
2023/07/28 02:22:23;;;;;;;2.60;2.40;;;;;;;14.00;75.25;64429.75;5052545;28;20212;-51
2023/07/28 02:24:49;;;;;;;4.55;2.50;;;;;;;14.17;73.15;64447.91;5052436;28;20570;-51
2023/07/28 02:27:15;;;;;;;2.42;2.22;;;;;;;14.18;74.70;64449.53;5052264;28;20209;-52
2023/07/28 02:29:42;;;;;;;4.57;2.47;;;;;;;14.17;73.56;64445.34;5052797;28;20209;-55
2023/07/28 02:32:08;;;;;;;4.50;2.70;;;;;;;14.21;73.00;64449.75;5051699;28;20453;-51
2023/07/28 02:34:33;;;;;;;2.60;2.40;;;;;;;14.16;74.03;64442.28;5051714;28;20259;-52
2023/07/28 02:36:59;;;;;;;2.75;2.38;;;;;;;14.30;74.23;64464.75;5033413;28;20201;-56
2023/07/28 02:39:25;;;;;;;5.13;2.33;;;;;;;14.49;73.24;64479.97;5051849;28;20213;-52
2023/07/28 02:41:51;;;;;;;2.38;1.88;;;;;;;14.48;71.89;64479.44;5052161;28;20235;-51
2023/07/28 02:44:16;;;;;;;2.15;1.95;;;;;;;14.45;72.46;64478.69;5052300;28;20691;-52
2023/07/28 02:46:42;;;;;;;2.35;2.17;;;;;;;14.37;72.72;64469.88;5052774;28;20201;-51
2023/07/28 02:49:08;;;;;;;3.45;2.33;;;;;;;14.24;73.69;64455.59;5052898;28;20201;-51
2023/07/28 02:51:34;;;;;;;2.53;2.13;;;;;;;14.29;74.72;64463.63;5052215;28;20233;-51
2023/07/28 02:54:00;;;;;;;3.67;2.40;;;;;;;14.22;73.47;64455.94;5052274;28;20267;-50
2023/07/28 02:56:26;;;;;;;4.72;2.50;;;;;;;14.17;74.36;64448.44;5052372;28;20202;-51
2023/07/28 02:58:52;;;;;;;3.00;2.33;;;;;;;14.23;74.85;64455.03;5051947;28;20210;-52
2023/07/28 03:01:18;;;;;;;2.33;2.13;;;;;;;14.38;74.98;64471.00;5051843;28;20292;-51
2023/07/28 03:03:44;;;;;;;2.60;2.40;;;;;;;14.40;74.16;64472.63;5051877;28;20307;-51
2023/07/28 03:06:09;;;;;;;2.58;2.20;;;;;;;14.51;75.02;64482.72;5052273;28;20198;-52
2023/07/28 03:08:35;;;;;;;4.47;2.47;;;;;;;14.55;74.61;64489.09;5052091;28;20209;-58
2023/07/28 03:11:03;;;;;;;4.20;2.27;;;;;;;14.48;73.59;64481.44;5051930;28;20601;-52
2023/07/28 03:13:29;;;;;;;2.40;2.20;;;;;;;14.46;73.96;64479.78;5066648;28;20278;-53
2023/07/28 03:15:54;;;;;;;3.50;2.47;;;;;;;14.38;74.19;64467.91;5052252;28;20225;-51
2023/07/28 03:18:20;;;;;;;3.55;2.78;;;;;;;14.50;76.15;64483.63;5051420;28;20738;-50
2023/07/28 03:20:46;;;;;;;2.63;2.42;;;;;;;14.49;75.55;64479.97;5051466;28;20209;-51
2023/07/28 03:23:12;;;;;;;3.47;2.40;;;;;;;14.46;75.49;64479.22;5051764;28;20644;-52
2023/07/28 03:25:38;;;;;;;2.58;2.25;;;;;;;14.48;75.01;64479.44;5051342;28;20189;-52
2023/07/28 03:28:04;;;;;;;4.22;2.38;;;;;;;14.52;74.92;64485.81;5050066;28;20292;-53
2023/07/28 03:30:29;;;;;;;5.18;2.28;;;;;;;14.70;76.71;64503.63;5051358;28;20204;-51
2023/07/28 03:32:55;;;;;;;3.92;2.47;;;;;;;14.86;75.75;64523.19;5051244;28;20217;-52
2023/07/28 03:35:20;;;;;;;7.75;2.72;;;;;;;14.82;76.20;64516.81;5051380;28;20263;-52
2023/07/28 03:37:46;;;;;;;3.95;2.72;;;;;;;14.79;76.07;64516.03;5050587;28;20213;-53
2023/07/28 03:40:11;;;;;;;5.40;2.85;;;;;;;14.79;77.51;64516.03;5051307;28;20212;-55
2023/07/28 03:42:37;;;;;;;5.88;2.90;;;;;;;14.75;77.69;64508.56;5033271;28;20221;-53
2023/07/28 03:45:03;;;;;;;3.40;2.72;;;;;;;14.77;78.17;64511.31;5051730;28;20198;-52
2023/07/28 03:47:29;;;;;;;4.03;3.25;;;;;;;14.67;77.52;64502.28;5050925;28;20737;-52
2023/07/28 03:49:55;;;;;;;5.22;3.25;;;;;;;14.62;77.37;64494.84;5051048;28;20197;-54
2023/07/28 03:52:20;;;;;;;5.20;2.90;;;;;;;14.72;76.97;64508.34;5050870;28;20278;-52
2023/07/28 03:54:46;;;;;;;3.33;2.85;;;;;;;14.67;76.15;64502.84;5051350;28;20205;-55
2023/07/28 03:57:11;;;;;;;4.72;3.08;;;;;;;14.47;77.84;64478.34;5051206;28;20198;-54
2023/07/28 03:59:37;;;;;;;7.80;3.10;;;;;;;14.27;78.49;64458.88;5051173;28;20213;-51
2023/07/28 04:02:03;;;;;;;29.65;20.45;;;;;;;14.35;79.09;64464.59;5051045;28;20224;-51
2023/07/28 04:04:29;;;;;;;4.30;3.90;;;;;;;14.31;78.92;64463.28;5050897;28;20266;-51
2023/07/28 04:06:54;;;;;;;10.85;6.80;;;;;;;14.39;79.83;64472.09;5050522;28;20300;-51
2023/07/28 04:09:20;;;;;;;3.65;2.78;;;;;;;14.41;79.32;64473.72;5050861;28;20285;-52
2023/07/28 04:11:46;;;;;;;5.70;3.42;;;;;;;14.51;79.63;64484.72;5050322;28;20206;-52
2023/07/28 04:14:12;;;;;;;4.30;2.80;;;;;;;14.59;78.03;64493.50;5051185;28;20209;-52
2023/07/28 04:16:39;;;;;;;3.47;3.05;;;;;;;14.47;77.82;64480.88;5049510;28;20213;-52
2023/07/28 04:19:05;;;;;;;3.53;2.65;;;;;;;14.51;79.07;64482.19;5032661;28;20210;-52
2023/07/28 04:21:30;;;;;;;3.88;2.88;;;;;;;14.56;78.71;64490.78;5050292;28;20246;-52
2023/07/28 04:23:56;;;;;;;5.28;3.08;;;;;;;14.61;78.79;64498.78;5050765;28;20567;-51
2023/07/28 04:26:23;;;;;;;3.10;2.80;;;;;;;14.71;78.87;64509.78;5032544;28;20686;-52
2023/07/28 04:28:55;;;;;;;3.95;3.53;;;;;;;14.71;79.85;64506.69;5050209;28;20205;-51
2023/07/28 04:31:21;;;;;;;3.08;2.85;;;;;;;14.91;78.48;64528.69;5050402;28;20285;-52
2023/07/28 04:33:46;;;;;;;4.10;3.10;;;;;;;15.12;76.72;64549.78;5050617;28;20217;-55
2023/07/28 04:36:12;;;;;;;4.47;3.10;;;;;;;14.96;76.93;64534.19;5050567;28;20642;-59
2023/07/28 04:38:37;;;;;;;4.95;3.20;;;;;;;14.89;78.00;64524.50;5050277;28;20699;-51
2023/07/28 04:41:03;;;;;;;3.75;3.30;;;;;;;14.95;78.27;64530.53;5050046;28;20217;-52
2023/07/28 04:43:28;;;;;;;4.18;3.00;;;;;;;14.95;77.08;64533.63;5050221;28;20703;-51
2023/07/28 04:45:54;;;;;;;4.18;3.65;;;;;;;14.98;78.73;64536.94;5032472;28;20296;-53
2023/07/28 04:48:19;;;;;;;7.15;3.55;;;;;;;14.85;77.91;64522.63;5050425;28;20248;-52
2023/07/28 04:50:45;;;;;;;6.75;3.75;;;;;;;14.73;78.46;64506.34;5053574;28;20247;-51
2023/07/28 04:53:10;;;;;;;4.60;3.35;;;;;;;14.55;79.23;64487.13;5053496;28;20209;-52
2023/07/28 04:55:36;;;;;;;5.13;3.83;;;;;;;14.57;79.36;64491.31;5054033;28;20575;-52
2023/07/28 04:58:01;;;;;;;5.07;3.60;;;;;;;14.73;78.58;64509.44;5053713;28;20327;-51
2023/07/28 05:00:27;;;;;;;5.53;3.75;;;;;;;14.90;78.00;64528.13;5053491;28;20587;-52
2023/07/28 05:02:52;;;;;;;4.70;3.80;;;;;;;15.05;78.41;64544.63;5053446;28;20209;-52
2023/07/28 05:05:18;;;;;;;6.38;4.00;;;;;;;15.23;77.01;64563.31;5053778;28;20383;-52
2023/07/28 05:07:43;;;;;;;4.78;4.00;;;;;;;15.14;77.56;64552.00;5053274;28;20201;-50
2023/07/28 05:10:09;;;;;;;6.63;4.22;;;;;;;15.11;77.45;64548.69;5053065;28;20217;-52
2023/07/28 05:12:35;;;;;;;4.40;4.00;;;;;;;15.05;77.71;64541.53;5053612;28;20600;-53
2023/07/28 05:15:00;;;;;;;4.72;4.10;;;;;;;15.37;77.29;64576.72;5053732;28;20582;-54
2023/07/28 05:17:26;;;;;;;4.47;3.95;;;;;;;15.99;74.90;64646.94;5053116;28;20653;-62
2023/07/28 05:19:51;;;;;;;7.20;4.35;;;;;;;15.82;76.63;64623.16;5053139;28;20205;-51
2023/07/28 05:22:17;;;;;;;5.40;3.72;;;;;;;16.24;74.48;64674.44;5053269;28;20702;-51
2023/07/28 05:24:44;;;;;;;6.75;3.65;;;;;;;16.43;74.46;64694.81;5053432;28;20555;-52
2023/07/28 05:27:10;;;;;;;7.43;4.07;;;;;;;16.31;74.29;64679.63;5053298;28;20267;-52
2023/07/28 05:29:36;;;;;;;4.55;4.07;;;;;;;16.33;73.37;64684.38;5053123;28;20212;-53
2023/07/28 05:32:02;;;;;;;7.00;4.25;;;;;;;16.20;73.85;64670.06;5052902;28;20214;-52
2023/07/28 05:34:28;;;;;;;6.72;3.72;;;;;;;16.40;70.73;64689.00;5052967;28;20647;-51
2023/07/28 05:36:54;;;;;;;8.25;4.22;;;;;;;16.47;71.92;64696.69;5053115;28;20205;-53
2023/07/28 05:39:19;;;;;;;11.27;5.53;;;;;;;16.58;81.64;64711.91;5052895;28;20221;-55
2023/07/28 05:41:46;;;;;;;6.40;3.97;;;;;;;16.70;72.59;64722.56;5053184;28;20294;-56
2023/07/28 05:44:11;;;;;;;5.82;4.50;;;;;;;16.44;76.72;64693.38;5053422;28;20741;-56
2023/07/28 05:46:37;;;;;;;4.15;3.75;;;;;;;16.26;78.29;64676.13;5053013;28;20212;-57
2023/07/28 05:49:03;;;;;;;7.00;4.65;;;;;;;16.24;76.81;64671.38;5052720;28;20676;-56
2023/07/28 05:51:28;;;;;;;7.38;5.00;;;;;;;16.28;75.63;64678.84;5052912;28;20636;-57
2023/07/28 05:53:54;;;;;;;8.27;4.80;;;;;;;16.33;76.44;64684.38;5034212;28;20218;-57
2023/07/28 05:56:20;;;;;;;7.18;4.53;;;;;;;16.52;75.85;64699.69;5049762;28;20598;-57
2023/07/28 05:58:49;;;;;;;7.68;4.88;;;;;;;16.58;75.23;64709.34;5052486;28;20209;-57
2023/07/28 06:01:15;;;;;;;5.85;5.05;;;;;;;16.61;74.50;64710.13;5050875;28;20354;-56
2023/07/28 06:03:41;;;;;;;10.13;5.28;;;;;;;16.63;74.76;64717.41;5034416;28;20292;-56
2023/07/28 06:06:07;;;;;;;8.07;5.28;;;;;;;16.63;72.72;64714.31;5051559;28;20675;-55
2023/07/28 06:08:32;;;;;;;10.40;5.75;;;;;;;16.50;73.89;64698.00;5078105;22;20229;-57
2023/07/28 06:10:58;;;;;;;11.30;5.53;;;;;;;16.56;73.27;64709.69;5069930;28;20588;-56
2023/07/28 06:13:23;;;;;;;5.30;4.80;;;;;;;16.38;75.46;64687.31;5052646;28;20620;-56
2023/07/28 06:15:49;;;;;;;9.00;4.50;;;;;;;16.31;77.82;64679.06;5052511;28;20172;-56
2023/07/28 06:18:14;;;;;;;9.05;4.93;;;;;;;16.26;77.26;64676.66;5052917;28;20296;-56
2023/07/28 06:20:43;;;;;;;8.27;3.97;;;;;;;16.52;71.41;64704.75;5052373;28;20205;-55
2023/07/28 06:23:09;;;;;;;5.20;3.67;;;;;;;16.50;71.58;64700.56;5052145;28;20308;-55
2023/07/28 06:25:37;;;;;;;4.13;3.72;;;;;;;16.49;72.10;64702.00;5051950;28;20699;-56
2023/07/28 06:28:03;;;;;;;4.80;3.70;;;;;;;16.59;73.68;64712.47;5052490;28;20228;-55
2023/07/28 06:30:29;;;;;;;6.85;4.28;;;;;;;16.44;74.83;64691.38;5052217;28;20564;-56
2023/07/28 06:32:54;;;;;;;7.75;3.80;;;;;;;16.87;71.30;64740.75;5051985;28;20214;-55
2023/07/28 06:35:20;;;;;;;7.38;3.35;;;;;;;16.99;70.01;64756.50;5034231;28;20263;-55
2023/07/28 06:37:45;;;;;;;4.97;3.10;;;;;;;16.91;69.46;64744.63;5052495;28;20278;-56
2023/07/28 06:40:10;;;;;;;8.75;3.65;;;;;;;16.87;71.02;64742.75;5052704;28;20193;-55
2023/07/28 06:42:36;;;;;;;6.63;3.33;;;;;;;16.74;73.50;64727.00;5052197;28;20752;-56
2023/07/28 06:45:03;;;;;;;11.43;3.63;;;;;;;16.90;70.42;64740.97;5052296;28;20203;-55
2023/07/28 06:47:29;;;;;;;3.22;2.92;;;;;;;17.17;68.37;64773.78;5052295;28;20225;-54
2023/07/28 06:50:01;;;;;;;5.78;2.65;;;;;;;17.17;66.92;64775.81;5051803;28;20286;-54
2023/07/28 06:52:26;;;;;;;4.15;3.75;;;;;;;17.04;68.06;64759.47;5051750;28;20229;-56
2023/07/28 06:54:54;;;;;;;3.10;2.90;;;;;;;17.15;67.78;64774.13;5051629;28;20226;-55
2023/07/28 06:57:19;;;;;;;5.50;3.83;;;;;;;17.26;67.85;64785.72;5051771;28;20213;-57
2023/07/28 06:59:45;;;;;;;4.45;3.72;;;;;;;17.44;66.74;64803.00;5051759;28;20214;-55
2023/07/28 07:02:10;;;;;;;7.47;4.40;;;;;;;17.22;66.88;64776.75;5051740;28;20217;-55
2023/07/28 07:04:36;;;;;;;8.90;5.10;;;;;;;17.46;67.45;64805.75;5051510;28;20211;-54
2023/07/28 07:07:02;;;;;;;8.48;4.43;;;;;;;17.66;67.63;64827.25;5051896;28;20214;-55
2023/07/28 07:09:28;;;;;;;7.10;4.78;;;;;;;17.66;64.96;64829.81;5052020;28;20201;-55
2023/07/28 07:11:53;;;;;;;8.30;3.97;;;;;;;17.75;63.57;64836.63;5051279;28;20214;-62
2023/07/28 07:14:18;;;;;;;7.75;4.43;;;;;;;17.79;64.47;64839.06;5051359;28;20237;-57
2023/07/28 07:16:44;;;;;;;7.03;3.90;;;;;;;17.84;64.07;64844.56;5051348;28;20699;-54
2023/07/28 07:19:09;;;;;;;6.30;4.53;;;;;;;17.88;63.39;64850.94;5051120;28;20737;-55
2023/07/28 07:21:35;;;;;;;5.45;4.43;;;;;;;17.94;64.73;64857.56;5051207;28;20300;-55
2023/07/28 07:24:03;;;;;;;4.57;3.92;;;;;;;17.87;66.96;64852.41;5051324;28;20201;-58
2023/07/28 07:26:28;;;;;;;6.30;3.92;;;;;;;18.20;65.40;64888.81;5051325;28;20213;-55
2023/07/28 07:28:54;;;;;;;5.30;4.28;;;;;;;18.38;62.92;64904.09;5051417;28;20284;-55
2023/07/28 07:31:19;;;;;;;4.97;3.70;;;;;;;18.25;63.57;64894.88;5050905;28;20205;-56
2023/07/28 07:33:45;;;;;;;5.18;3.95;;;;;;;18.18;64.23;64884.06;5050938;28;20214;-58
2023/07/28 07:36:14;;;;;;;6.32;4.25;;;;;;;18.31;63.53;64901.50;5051260;28;20683;-54
2023/07/28 07:38:41;;;;;;;7.50;3.72;;;;;;;18.60;63.54;64927.28;5051541;28;20667;-54
2023/07/28 07:41:08;;;;;;;5.30;4.03;;;;;;;18.76;61.98;64948.03;5050696;28;20205;-55
2023/07/28 07:43:34;;;;;;;4.80;3.58;;;;;;;18.91;59.84;64966.59;5050710;28;20660;-54
2023/07/28 07:45:59;;;;;;;7.63;3.70;;;;;;;19.04;60.00;64973.28;5051058;28;20235;-55
2023/07/28 07:48:25;;;;;;;3.78;3.45;;;;;;;18.96;60.67;64969.56;5033136;28;20212;-54
2023/07/28 07:50:51;;;;;;;6.13;3.30;;;;;;;18.91;61.21;64964.03;5050848;28;20236;-54
2023/07/28 07:53:17;;;;;;;8.75;3.70;;;;;;;19.11;57.97;64983.53;5050966;28;20225;-59
2023/07/28 07:55:42;;;;;;;12.32;4.07;;;;;;;18.97;58.97;64973.22;5050931;28;20263;-57
2023/07/28 07:58:08;;;;;;;3.97;2.88;;;;;;;19.04;59.20;64975.84;5032859;28;20210;-54
2023/07/28 08:00:34;;;;;;;6.13;3.47;;;;;;;18.87;61.16;64960.16;5050603;28;20592;-54
2023/07/28 08:02:59;;;;;;;6.72;3.67;;;;;;;18.89;60.98;64959.28;5050293;28;20224;-53
2023/07/28 08:05:25;;;;;;;3.80;3.45;;;;;;;18.96;61.15;64967.00;5050904;28;20206;-54
2023/07/28 08:07:51;;;;;;;4.18;3.50;;;;;;;19.00;59.97;64971.41;5050950;28;20663;-54
2023/07/28 08:10:17;;;;;;;5.05;3.75;;;;;;;19.26;60.12;65002.66;5050457;28;20205;-57
2023/07/28 08:12:44;;;;;;;3.85;2.70;;;;;;;19.43;60.26;65021.47;5050483;28;20225;-53
2023/07/28 08:15:10;;;;;;;4.40;3.17;;;;;;;19.60;59.22;65037.66;5050423;28;20205;-54
2023/07/28 08:17:35;;;;;;;7.32;4.60;;;;;;;19.76;59.20;65057.91;5050576;28;20275;-53
2023/07/28 08:20:01;;;;;;;3.33;2.85;;;;;;;19.95;58.98;65078.88;5050443;28;20208;-54
2023/07/28 08:22:26;;;;;;;7.40;4.38;;;;;;;20.20;58.35;65102.84;5050139;28;20205;-54
2023/07/28 08:24:52;;;;;;;5.28;3.58;;;;;;;20.24;56.30;65109.84;5049998;28;20200;-53
2023/07/28 08:27:18;;;;;;;6.50;3.05;;;;;;;20.31;55.74;65118.13;5050190;28;20318;-52
2023/07/28 08:29:43;;;;;;;4.60;2.80;;;;;;;20.28;53.93;65112.25;5050178;28;20205;-53
2023/07/28 08:32:09;;;;;;;7.35;4.30;;;;;;;20.48;55.67;65134.34;5050029;28;20209;-53
2023/07/28 08:34:34;;;;;;;3.75;2.60;;;;;;;20.70;53.90;65158.09;5050631;28;20575;-53
2023/07/28 08:37:00;;;;;;;5.20;3.00;;;;;;;20.83;53.49;65175.03;5050202;28;20248;-54
2023/07/28 08:39:25;;;;;;;3.05;2.42;;;;;;;20.88;51.48;65178.56;5049854;28;20209;-53
2023/07/28 08:42:00;;;;;;;4.25;2.45;;;;;;;20.69;51.92;65157.56;5049738;28;20263;-53
2023/07/28 08:44:26;;;;;;;3.63;2.72;;;;;;;20.69;52.40;65162.69;5050213;28;20193;-53
2023/07/28 08:46:52;;;;;;;3.97;3.05;;;;;;;21.04;53.31;65195.72;5049932;28;20262;-53
2023/07/28 08:49:17;;;;;;;5.30;3.20;;;;;;;21.10;53.80;65201.78;5049944;28;20654;-54
2023/07/28 08:51:49;;;;;;;5.72;3.00;;;;;;;21.35;50.81;65232.00;5048808;28;20558;-53
2023/07/28 08:54:16;;;;;;;3.67;2.85;;;;;;;21.39;50.02;65236.97;5050514;28;20197;-53
2023/07/28 08:56:43;;;;;;;4.28;2.90;;;;;;;21.51;52.46;65247.69;5050043;28;20210;-53
2023/07/28 08:59:09;;;;;;;3.70;3.08;;;;;;;21.87;50.02;65286.44;5049622;28;20211;-53
2023/07/28 09:01:43;;;;;;;3.95;2.78;;;;;;;21.89;48.33;65291.78;5049627;28;20229;-53
2023/07/28 09:04:10;;;;;;;2.92;2.60;;;;;;;21.85;48.98;65284.78;5049474;28;20317;-53
2023/07/28 09:06:36;;;;;;;5.65;2.92;;;;;;;21.77;47.97;65276.44;5049872;28;20267;-53
2023/07/28 09:09:02;;;;;;;4.80;2.83;;;;;;;21.72;50.25;65270.38;5049402;28;20181;-52
2023/07/28 09:11:28;;;;;;;7.60;3.08;;;;;;;21.98;48.74;65301.19;5049420;28;20651;-52
2023/07/28 09:13:55;;;;;;;4.05;2.70;;;;;;;22.32;47.98;65336.25;5049437;28;20289;-53
2023/07/28 09:16:21;;;;;;;6.70;2.50;;;;;;;22.35;48.49;65339.56;5049295;28;20228;-54
2023/07/28 09:18:47;;;;;;;3.55;2.42;;;;;;;22.58;48.28;65367.06;5049520;28;20208;-51
2023/07/28 09:21:18;;;;;;;5.90;3.13;;;;;;;22.62;48.70;65368.91;5049275;28;20573;-53
2023/07/28 09:23:43;;;;;;;6.00;2.60;;;;;;;23.03;46.62;65414.88;5049382;28;20201;-52
2023/07/28 09:26:09;;;;;;;3.60;3.22;;;;;;;23.22;45.73;65433.34;5049622;28;20589;-52
2023/07/28 09:28:39;;;;;;;3.80;2.53;;;;;;;22.96;43.67;65407.13;5031589;28;20213;-53
2023/07/28 09:31:05;;;;;;;8.45;2.80;;;;;;;22.82;44.42;65391.06;5049399;28;20201;-53
2023/07/28 09:33:33;;;;;;;6.03;2.55;;;;;;;22.88;44.96;65397.69;5049288;28;20282;-52
2023/07/28 09:36:15;;;;;;;3.60;2.70;;;;;;;23.04;45.21;65415.44;5052394;28;20215;-52
2023/07/28 09:38:41;;;;;;;2.47;2.28;;;;;;;23.21;45.54;65434.81;5051479;28;20205;-52
2023/07/28 09:41:10;;;;;;;3.00;2.33;;;;;;;23.44;46.61;65459.19;5051901;28;20204;-53
2023/07/28 09:43:39;;;;;;;3.42;2.38;;;;;;;23.81;44.13;65500.22;5051887;28;20209;-53
2023/07/28 09:46:08;;;;;;;4.00;2.60;;;;;;;24.06;44.16;65527.94;5052847;28;20197;-51
2023/07/28 09:48:34;;;;;;;5.88;2.60;;;;;;;24.41;45.69;65566.19;5051244;28;20691;-52
2023/07/28 09:51:09;;;;;;;12.25;3.20;;;;;;;24.48;43.44;65574.53;5052392;28;20209;-52
2023/07/28 09:53:40;;;;;;;3.65;2.33;;;;;;;24.46;41.21;65571.75;5052910;28;20298;-53
2023/07/28 09:56:08;;;;;;;3.20;2.22;;;;;;;24.74;41.86;65600.81;5052454;28;20209;-52
2023/07/28 09:58:41;;;;;;;5.80;2.55;;;;;;;24.81;42.59;65610.59;5052556;28;20243;-53
2023/07/28 10:01:08;;;;;;;2.80;2.40;;;;;;;24.72;41.86;65601.16;5033995;28;20213;-52
2023/07/28 10:03:34;;;;;;;3.03;2.17;;;;;;;24.78;42.58;65607.81;5051827;28;20198;-51
2023/07/28 10:05:59;;;;;;;4.18;2.78;;;;;;;25.32;42.73;65666.63;5051434;28;20243;-52
2023/07/28 10:08:25;;;;;;;3.53;3.05;;;;;;;25.73;42.39;65712.69;5050424;28;20551;-52
2023/07/28 10:10:52;;;;;;;3.47;2.47;;;;;;;25.96;41.69;65737.69;5051294;28;20724;-56
2023/07/28 10:13:22;;;;;;;5.18;2.55;;;;;;;26.31;40.82;65776.03;5052429;28;20253;-53
2023/07/28 10:15:48;;;;;;;7.13;2.58;;;;;;;26.60;40.74;65808.25;5052311;28;20284;-52
2023/07/28 10:18:14;;;;;;;5.80;2.65;;;;;;;26.61;37.65;65809.38;5034009;28;20210;-52
2023/07/28 10:20:42;;;;;;;4.78;2.60;;;;;;;26.58;39.04;65804.00;5051696;28;20207;-53
2023/07/28 10:23:14;;;;;;;4.45;2.50;;;;;;;26.80;39.33;65829.94;5033701;28;20304;-52
2023/07/28 10:25:41;;;;;;;3.80;2.55;;;;;;;27.04;37.82;65854.59;5051673;28;20265;-53
2023/07/28 10:28:25;;;;;;;3.60;2.45;;;;;;;26.36;38.70;65784.72;5052098;28;20205;-51
2023/07/28 10:30:53;;;;;;;3.40;2.75;;;;;;;26.71;35.54;65819.91;5051678;28;20672;-53
2023/07/28 10:33:30;;;;;;;6.38;2.30;;;;;;;26.46;36.36;65792.72;5052090;28;20714;-52
2023/07/28 10:35:57;;;;;;;5.20;2.90;;;;;;;26.13;36.07;65751.44;5052123;28;20277;-53
2023/07/28 10:38:34;;;;;;;3.67;2.55;;;;;;;26.33;37.16;65776.22;5051811;28;20283;-52
2023/07/28 10:41:08;;;;;;;7.30;2.72;;;;;;;26.05;36.64;65750.28;5050367;28;20217;-54
2023/07/28 10:43:34;;;;;;;3.78;2.55;;;;;;;26.42;35.82;65788.81;5051719;28;20195;-52
2023/07/28 10:46:00;;;;;;;6.38;2.58;;;;;;;26.72;36.17;65821.06;5051185;28;20198;-52
2023/07/28 10:48:26;;;;;;;3.08;2.55;;;;;;;27.15;36.12;65866.81;5051213;28;20201;-52
2023/07/28 10:50:52;;;;;;;4.53;2.55;;;;;;;27.40;36.46;65897.22;5051350;28;20683;-52
2023/07/28 10:53:17;;;;;;;3.28;2.60;;;;;;;27.21;35.68;65875.53;5051650;28;20225;-53
2023/07/28 10:55:44;;;;;;;4.78;2.42;;;;;;;26.83;36.61;65831.25;5051570;28;20219;-52
2023/07/28 10:58:10;;;;;;;3.03;2.30;;;;;;;27.38;36.03;65895.00;5051258;28;20710;-52
2023/07/28 11:00:36;;;;;;;2.95;2.63;;;;;;;27.38;35.97;65894.44;5051225;28;20197;-53
2023/07/28 11:03:01;;;;;;;2.83;2.53;;;;;;;27.11;35.41;65864.94;5051145;28;20327;-52
2023/07/28 11:05:29;;;;;;;3.88;2.80;;;;;;;27.32;34.91;65887.75;5051576;28;20224;-58
2023/07/28 11:08:00;;;;;;;5.85;2.65;;;;;;;27.60;35.55;65918.91;5051506;28;20213;-54
2023/07/28 11:10:29;;;;;;;4.80;2.85;;;;;;;27.56;35.98;65913.88;5051053;28;20213;-54
2023/07/28 11:12:58;;;;;;;4.55;2.65;;;;;;;27.73;35.00;65930.78;5050819;28;20279;-52
2023/07/28 11:15:25;;;;;;;3.90;2.67;;;;;;;27.41;34.75;65898.31;5051400;28;20259;-52
2023/07/28 11:17:51;;;;;;;2.33;2.10;;;;;;;28.08;33.20;65969.72;5050996;28;20233;-51
2023/07/28 11:20:19;;;;;;;4.88;2.47;;;;;;;28.18;34.06;65980.84;5051325;28;20312;-53
2023/07/28 11:22:46;;;;;;;7.00;2.20;;;;;;;27.77;33.73;65935.22;5050857;28;20221;-52
2023/07/28 11:25:12;;;;;;;4.75;2.72;;;;;;;27.81;34.56;65936.53;5051111;28;20198;-52
2023/07/28 11:27:39;;;;;;;4.53;2.40;;;;;;;28.23;33.76;65986.41;5050844;28;20290;-53
2023/07/28 11:30:09;;;;;;;3.75;2.55;;;;;;;28.39;33.43;66005.69;5050806;28;20580;-53
2023/07/28 11:32:36;;;;;;;3.28;2.88;;;;;;;28.89;33.36;66058.75;5050922;28;20279;-53